Aérodrome :
LOGIN :

S'inscrire | Disclaimer

   EN    FR    IT 

 










Légende :    VFR   VFR Marginal   IFR   IFR Intensif   IFR Très Intensif
Visi : 
Plafond : 
>= 8 km
>= 3000ft
5 à 8 km
1000 à 3000 ft
1500m à 5 km
500 à 1000 ft
800 à 1500m
200 à 500 ft
< 800m
< 200 ft
Symboles :   Orages  Brouillard  Fortes neiges  Fortes précipitations  Vent > 20 kt
SIGMETs :   Divers  Orages  Givrage  Turbulence  Onde Orograph.  Cendres Volcan.







- Altitude de l'aérodrome : 204 ft
- Code IATA : AGF
- Voir les cartes d'approche


LFBA - Agen

DERNIER METAR :
  • 181800Z AUTO 34005KT 310V010 CAVOK 09/07 Q1025 NOSIG

METARs EXPIRÉS :
  • 181730Z AUTO 36008KT 330V030 9999 FEW019 SCT044 BKN050 11/08 Q1024 NOSIG
  • 181700Z AUTO 33005KT 9999 FEW014 SCT019 BKN028 11/10 Q1024 NOSIG
  • 181630Z AUTO 32007KT 300V010 9999 BKN015 BKN058 12/11 Q1023 NOSIG
  • 181600Z AUTO 32008KT 9999 -RA FEW005 BKN013 OVC034 12/11 Q1023 BECMG NSC
  • 181530Z AUTO 29008KT 9999 -RA BKN005 OVC009 11/11 Q1023 BECMG 36010KT NSC

TAF TAF LFBA
Valide du 18 à 18h jusqu'au 19 à 03h UTC


181700Z 1818/1903 36007KT 9999 SCT035
PROB30
TEMPO 1900/1903 3000 BR
Pas de NOTAMs connus pour ce terrain.
1 SIGMET publié pour la FIR Bordeaux (LFBB) :
 
Turbulence forte
LFBB SIGMET 2 VALID 181700/182100 LFPW
LFBB BORDEAUX FIR/UIR SEV TURB FCST WI N4300 E00230 - N4215 E00230 - N4245 W00100 - N4300 W00100 - N4300 E00230 SFC/FL150 STNR NC=



MET'MAP, la Météo Aéronautique d'un coup d'oeil ! - Copyright ORBIFLY Décembre 2007 - Disclaimer

ORBIFLY MET'MAP TEAM :

Programmation & Développement : Alexandra Zaïnal
Conception & Développement : Baudouin d'Aumeries
Co-Programmation & Développement : Marc-Olivier Méhu
Soutien technique & logistique : Manuel Goepfert

Contact : metmap@orbifly.com




SOURCES & CREDITS :

   NOAA